sensor_id;sensor_type;location;lat;lon;timestamp;P1;durP1;ratioP1;P2;durP2;ratioP2
6828;SDS011;17930;48.592;8.868;2024-01-10T00:01:03;21.45;;;9.85;;
6828;SDS011;17930;48.592;8.868;2024-01-10T00:03:30;13.48;;;7.55;;
6828;SDS011;17930;48.592;8.868;2024-01-10T00:06:01;17.42;;;8.05;;
6828;SDS011;17930;48.592;8.868;2024-01-10T00:08:28;20.40;;;8.60;;
6828;SDS011;17930;48.592;8.868;2024-01-10T00:10:54;21.30;;;8.68;;
6828;SDS011;17930;48.592;8.868;2024-01-10T00:13:21;20.42;;;7.93;;
6828;SDS011;17930;48.592;8.868;2024-01-10T00:15:48;21.83;;;8.07;;
6828;SDS011;17930;48.592;8.868;2024-01-10T00:18:15;24.42;;;8.82;;
6828;SDS011;17930;48.592;8.868;2024-01-10T00:20:42;20.83;;;9.13;;
6828;SDS011;17930;48.592;8.868;2024-01-10T00:23:10;24.00;;;8.07;;
6828;SDS011;17930;48.592;8.868;2024-01-10T00:25:40;20.58;;;8.75;;
6828;SDS011;17930;48.592;8.868;2024-01-10T00:28:07;22.27;;;9.13;;
6828;SDS011;17930;48.592;8.868;2024-01-10T00:30:34;20.13;;;8.02;;
6828;SDS011;17930;48.592;8.868;2024-01-10T00:33:01;24.83;;;9.80;;
6828;SDS011;17930;48.592;8.868;2024-01-10T00:35:27;19.02;;;8.38;;
6828;SDS011;17930;48.592;8.868;2024-01-10T00:37:54;16.00;;;8.45;;
6828;SDS011;17930;48.592;8.868;2024-01-10T00:40:22;17.25;;;8.13;;
6828;SDS011;17930;48.592;8.868;2024-01-10T00:42:49;17.92;;;8.68;;
6828;SDS011;17930;48.592;8.868;2024-01-10T00:45:16;16.60;;;7.38;;
6828;SDS011;17930;48.592;8.868;2024-01-10T00:47:43;15.63;;;7.85;;
6828;SDS011;17930;48.592;8.868;2024-01-10T00:50:10;25.48;;;9.25;;
6828;SDS011;17930;48.592;8.868;2024-01-10T00:52:36;19.17;;;8.23;;
6828;SDS011;17930;48.592;8.868;2024-01-10T00:55:03;18.05;;;8.23;;
6828;SDS011;17930;48.592;8.868;2024-01-10T00:57:32;18.88;;;8.40;;
6828;SDS011;17930;48.592;8.868;2024-01-10T00:59:59;14.00;;;7.88;;
6828;SDS011;17930;48.592;8.868;2024-01-10T01:02:25;19.75;;;8.27;;
6828;SDS011;17930;48.592;8.868;2024-01-10T01:04:52;22.15;;;8.60;;
6828;SDS011;17930;48.592;8.868;2024-01-10T01:07:19;21.17;;;7.78;;
6828;SDS011;17930;48.592;8.868;2024-01-10T01:09:46;19.10;;;8.38;;
6828;SDS011;17930;48.592;8.868;2024-01-10T01:12:13;17.00;;;8.05;;
6828;SDS011;17930;48.592;8.868;2024-01-10T01:14:41;15.63;;;7.95;;
6828;SDS011;17930;48.592;8.868;2024-01-10T01:17:08;14.65;;;6.90;;
6828;SDS011;17930;48.592;8.868;2024-01-10T01:19:35;14.10;;;6.43;;
6828;SDS011;17930;48.592;8.868;2024-01-10T01:22:02;17.13;;;7.97;;
6828;SDS011;17930;48.592;8.868;2024-01-10T01:24:29;17.48;;;7.30;;
6828;SDS011;17930;48.592;8.868;2024-01-10T01:26:55;17.05;;;7.18;;
6828;SDS011;17930;48.592;8.868;2024-01-10T01:29:22;15.82;;;7.25;;
6828;SDS011;17930;48.592;8.868;2024-01-10T01:31:50;16.15;;;6.05;;
6828;SDS011;17930;48.592;8.868;2024-01-10T01:34:19;13.93;;;6.45;;
6828;SDS011;17930;48.592;8.868;2024-01-10T01:36:46;15.00;;;6.82;;
6828;SDS011;17930;48.592;8.868;2024-01-10T01:39:13;13.05;;;6.20;;
6828;SDS011;17930;48.592;8.868;2024-01-10T01:41:40;13.90;;;6.55;;
6828;SDS011;17930;48.592;8.868;2024-01-10T01:44:06;19.33;;;7.15;;
6828;SDS011;17930;48.592;8.868;2024-01-10T01:46:33;13.70;;;6.90;;
6828;SDS011;17930;48.592;8.868;2024-01-10T01:49:02;14.13;;;7.28;;
6828;SDS011;17930;48.592;8.868;2024-01-10T01:51:30;19.00;;;7.43;;
6828;SDS011;17930;48.592;8.868;2024-01-10T01:53:58;15.23;;;7.40;;
6828;SDS011;17930;48.592;8.868;2024-01-10T01:56:25;18.27;;;8.00;;
6828;SDS011;17930;48.592;8.868;2024-01-10T01:58:53;13.45;;;6.85;;
6828;SDS011;17930;48.592;8.868;2024-01-10T02:01:21;20.20;;;9.32;;
6828;SDS011;17930;48.592;8.868;2024-01-10T02:03:48;15.10;;;6.68;;
6828;SDS011;17930;48.592;8.868;2024-01-10T02:06:17;13.43;;;6.88;;
6828;SDS011;17930;48.592;8.868;2024-01-10T02:08:43;15.68;;;6.60;;
6828;SDS011;17930;48.592;8.868;2024-01-10T02:11:10;18.70;;;8.07;;
6828;SDS011;17930;48.592;8.868;2024-01-10T02:13:37;17.50;;;7.80;;
6828;SDS011;17930;48.592;8.868;2024-01-10T02:16:07;17.23;;;7.45;;
6828;SDS011;17930;48.592;8.868;2024-01-10T02:18:35;16.80;;;7.18;;
6828;SDS011;17930;48.592;8.868;2024-01-10T02:21:02;17.83;;;7.03;;
6828;SDS011;17930;48.592;8.868;2024-01-10T02:23:30;18.33;;;8.10;;
6828;SDS011;17930;48.592;8.868;2024-01-10T02:25:59;18.42;;;7.63;;
6828;SDS011;17930;48.592;8.868;2024-01-10T02:28:25;17.55;;;7.15;;
6828;SDS011;17930;48.592;8.868;2024-01-10T02:30:52;20.63;;;8.05;;
6828;SDS011;17930;48.592;8.868;2024-01-10T02:33:24;18.63;;;7.97;;
6828;SDS011;17930;48.592;8.868;2024-01-10T02:35:50;18.15;;;8.25;;
6828;SDS011;17930;48.592;8.868;2024-01-10T02:38:17;16.27;;;7.15;;
6828;SDS011;17930;48.592;8.868;2024-01-10T02:40:46;19.40;;;8.10;;
6828;SDS011;17930;48.592;8.868;2024-01-10T02:43:15;20.95;;;8.20;;
6828;SDS011;17930;48.592;8.868;2024-01-10T02:45:42;16.23;;;7.68;;
6828;SDS011;17930;48.592;8.868;2024-01-10T02:48:08;15.23;;;7.53;;
6828;SDS011;17930;48.592;8.868;2024-01-10T02:50:35;18.65;;;8.18;;
6828;SDS011;17930;48.592;8.868;2024-01-10T02:53:03;16.35;;;7.20;;
6828;SDS011;17930;48.592;8.868;2024-01-10T02:55:31;18.73;;;7.03;;
6828;SDS011;17930;48.592;8.868;2024-01-10T02:57:58;16.63;;;8.63;;
6828;SDS011;17930;48.592;8.868;2024-01-10T03:00:26;16.38;;;8.05;;
6828;SDS011;17930;48.592;8.868;2024-01-10T03:02:53;20.70;;;9.20;;
6828;SDS011;17930;48.592;8.868;2024-01-10T03:05:19;17.80;;;9.13;;
6828;SDS011;17930;48.592;8.868;2024-01-10T03:07:47;19.05;;;8.75;;
6828;SDS011;17930;48.592;8.868;2024-01-10T03:10:14;17.70;;;8.43;;
6828;SDS011;17930;48.592;8.868;2024-01-10T03:12:41;21.90;;;8.48;;
6828;SDS011;17930;48.592;8.868;2024-01-10T03:15:08;16.48;;;8.75;;
6828;SDS011;17930;48.592;8.868;2024-01-10T03:17:37;22.77;;;9.82;;
6828;SDS011;17930;48.592;8.868;2024-01-10T03:20:04;16.85;;;9.15;;
6828;SDS011;17930;48.592;8.868;2024-01-10T03:22:34;15.02;;;8.23;;
6828;SDS011;17930;48.592;8.868;2024-01-10T03:25:01;25.10;;;9.75;;
6828;SDS011;17930;48.592;8.868;2024-01-10T03:27:28;19.65;;;9.10;;
6828;SDS011;17930;48.592;8.868;2024-01-10T03:29:55;20.88;;;9.68;;
6828;SDS011;17930;48.592;8.868;2024-01-10T03:32:22;21.13;;;10.75;;
6828;SDS011;17930;48.592;8.868;2024-01-10T03:34:50;19.38;;;9.20;;
6828;SDS011;17930;48.592;8.868;2024-01-10T03:37:17;18.58;;;8.57;;
6828;SDS011;17930;48.592;8.868;2024-01-10T03:39:44;21.33;;;9.10;;
6828;SDS011;17930;48.592;8.868;2024-01-10T03:42:11;19.77;;;8.90;;
6828;SDS011;17930;48.592;8.868;2024-01-10T03:44:38;22.70;;;10.38;;
6828;SDS011;17930;48.592;8.868;2024-01-10T03:47:04;24.73;;;10.38;;
6828;SDS011;17930;48.592;8.868;2024-01-10T03:49:31;23.30;;;9.70;;
6828;SDS011;17930;48.592;8.868;2024-01-10T03:51:59;23.30;;;10.57;;
6828;SDS011;17930;48.592;8.868;2024-01-10T03:54:27;19.23;;;9.55;;
6828;SDS011;17930;48.592;8.868;2024-01-10T03:56:54;21.25;;;9.38;;
6828;SDS011;17930;48.592;8.868;2024-01-10T03:59:20;22.77;;;10.88;;
6828;SDS011;17930;48.592;8.868;2024-01-10T04:01:47;23.25;;;9.90;;
6828;SDS011;17930;48.592;8.868;2024-01-10T04:04:15;21.10;;;8.48;;
6828;SDS011;17930;48.592;8.868;2024-01-10T04:06:41;19.50;;;9.05;;
6828;SDS011;17930;48.592;8.868;2024-01-10T04:09:10;18.52;;;8.45;;
6828;SDS011;17930;48.592;8.868;2024-01-10T04:11:36;19.90;;;10.18;;
6828;SDS011;17930;48.592;8.868;2024-01-10T04:14:03;24.40;;;9.35;;
6828;SDS011;17930;48.592;8.868;2024-01-10T04:16:31;20.50;;;9.13;;
6828;SDS011;17930;48.592;8.868;2024-01-10T04:18:57;20.23;;;8.63;;
6828;SDS011;17930;48.592;8.868;2024-01-10T04:21:24;18.13;;;8.32;;
6828;SDS011;17930;48.592;8.868;2024-01-10T04:23:51;25.92;;;9.68;;
6828;SDS011;17930;48.592;8.868;2024-01-10T04:26:19;17.02;;;9.45;;
6828;SDS011;17930;48.592;8.868;2024-01-10T04:28:45;17.83;;;9.65;;
6828;SDS011;17930;48.592;8.868;2024-01-10T04:31:12;20.38;;;9.85;;
6828;SDS011;17930;48.592;8.868;2024-01-10T04:33:39;21.83;;;9.57;;
6828;SDS011;17930;48.592;8.868;2024-01-10T04:36:05;24.63;;;10.82;;
6828;SDS011;17930;48.592;8.868;2024-01-10T04:38:33;20.88;;;9.63;;
6828;SDS011;17930;48.592;8.868;2024-01-10T04:40:59;25.35;;;11.68;;
6828;SDS011;17930;48.592;8.868;2024-01-10T04:43:27;20.20;;;9.27;;
6828;SDS011;17930;48.592;8.868;2024-01-10T04:45:54;18.98;;;9.38;;
6828;SDS011;17930;48.592;8.868;2024-01-10T04:48:20;21.00;;;10.07;;
6828;SDS011;17930;48.592;8.868;2024-01-10T04:50:47;21.40;;;9.60;;
6828;SDS011;17930;48.592;8.868;2024-01-10T04:53:14;24.13;;;9.75;;
6828;SDS011;17930;48.592;8.868;2024-01-10T04:55:41;21.45;;;8.88;;
6828;SDS011;17930;48.592;8.868;2024-01-10T04:58:08;21.25;;;9.88;;
6828;SDS011;17930;48.592;8.868;2024-01-10T05:00:37;21.70;;;9.25;;
6828;SDS011;17930;48.592;8.868;2024-01-10T05:03:04;19.58;;;9.82;;
6828;SDS011;17930;48.592;8.868;2024-01-10T05:05:31;21.50;;;8.82;;
6828;SDS011;17930;48.592;8.868;2024-01-10T05:07:58;21.83;;;8.52;;
6828;SDS011;17930;48.592;8.868;2024-01-10T05:10:26;19.67;;;8.88;;
6828;SDS011;17930;48.592;8.868;2024-01-10T05:12:55;20.73;;;9.63;;
6828;SDS011;17930;48.592;8.868;2024-01-10T05:15:22;17.90;;;9.43;;
6828;SDS011;17930;48.592;8.868;2024-01-10T05:17:50;22.33;;;8.38;;
6828;SDS011;17930;48.592;8.868;2024-01-10T05:20:17;19.42;;;9.27;;
6828;SDS011;17930;48.592;8.868;2024-01-10T05:22:44;22.55;;;11.02;;
6828;SDS011;17930;48.592;8.868;2024-01-10T05:25:11;21.15;;;9.13;;
6828;SDS011;17930;48.592;8.868;2024-01-10T05:27:38;19.67;;;9.05;;
6828;SDS011;17930;48.592;8.868;2024-01-10T05:30:08;16.83;;;8.15;;
6828;SDS011;17930;48.592;8.868;2024-01-10T05:32:37;18.17;;;8.40;;
6828;SDS011;17930;48.592;8.868;2024-01-10T05:35:06;20.42;;;8.73;;
6828;SDS011;17930;48.592;8.868;2024-01-10T05:37:33;19.88;;;9.98;;
6828;SDS011;17930;48.592;8.868;2024-01-10T05:40:00;18.92;;;8.60;;
6828;SDS011;17930;48.592;8.868;2024-01-10T05:42:27;20.73;;;9.18;;
6828;SDS011;17930;48.592;8.868;2024-01-10T05:44:53;18.85;;;9.07;;
6828;SDS011;17930;48.592;8.868;2024-01-10T05:47:20;15.32;;;7.72;;
6828;SDS011;17930;48.592;8.868;2024-01-10T05:49:47;25.08;;;9.43;;
6828;SDS011;17930;48.592;8.868;2024-01-10T05:52:15;16.20;;;9.05;;
6828;SDS011;17930;48.592;8.868;2024-01-10T05:54:42;20.90;;;8.77;;
6828;SDS011;17930;48.592;8.868;2024-01-10T05:57:08;24.17;;;9.95;;
6828;SDS011;17930;48.592;8.868;2024-01-10T05:59:35;19.80;;;8.77;;
6828;SDS011;17930;48.592;8.868;2024-01-10T06:02:02;22.70;;;9.60;;
6828;SDS011;17930;48.592;8.868;2024-01-10T06:04:33;18.48;;;9.38;;
6828;SDS011;17930;48.592;8.868;2024-01-10T06:07:00;23.52;;;10.30;;
6828;SDS011;17930;48.592;8.868;2024-01-10T06:09:31;19.95;;;9.13;;
6828;SDS011;17930;48.592;8.868;2024-01-10T06:12:00;20.27;;;8.38;;
6828;SDS011;17930;48.592;8.868;2024-01-10T06:14:29;23.45;;;8.82;;
6828;SDS011;17930;48.592;8.868;2024-01-10T06:16:57;23.40;;;10.15;;
6828;SDS011;17930;48.592;8.868;2024-01-10T06:19:25;20.88;;;9.20;;
6828;SDS011;17930;48.592;8.868;2024-01-10T06:21:51;22.60;;;10.15;;
6828;SDS011;17930;48.592;8.868;2024-01-10T06:24:20;22.90;;;10.82;;
6828;SDS011;17930;48.592;8.868;2024-01-10T06:26:48;26.38;;;11.57;;
6828;SDS011;17930;48.592;8.868;2024-01-10T06:29:16;28.88;;;14.05;;
6828;SDS011;17930;48.592;8.868;2024-01-10T06:31:42;31.27;;;15.07;;
6828;SDS011;17930;48.592;8.868;2024-01-10T06:34:09;35.80;;;15.13;;
6828;SDS011;17930;48.592;8.868;2024-01-10T06:36:36;27.90;;;15.02;;
6828;SDS011;17930;48.592;8.868;2024-01-10T06:39:03;28.95;;;13.57;;
6828;SDS011;17930;48.592;8.868;2024-01-10T06:41:33;23.60;;;10.52;;
6828;SDS011;17930;48.592;8.868;2024-01-10T06:44:01;21.95;;;9.65;;
6828;SDS011;17930;48.592;8.868;2024-01-10T06:46:29;21.17;;;10.35;;
6828;SDS011;17930;48.592;8.868;2024-01-10T06:48:57;26.58;;;10.23;;
6828;SDS011;17930;48.592;8.868;2024-01-10T06:51:24;26.73;;;11.40;;
6828;SDS011;17930;48.592;8.868;2024-01-10T06:53:51;22.25;;;10.13;;
6828;SDS011;17930;48.592;8.868;2024-01-10T06:56:18;26.73;;;10.27;;
6828;SDS011;17930;48.592;8.868;2024-01-10T06:58:45;26.33;;;10.02;;
6828;SDS011;17930;48.592;8.868;2024-01-10T07:01:13;24.85;;;11.05;;
6828;SDS011;17930;48.592;8.868;2024-01-10T07:03:40;21.05;;;8.93;;
6828;SDS011;17930;48.592;8.868;2024-01-10T07:06:07;19.88;;;9.70;;
6828;SDS011;17930;48.592;8.868;2024-01-10T07:08:34;20.85;;;11.10;;
6828;SDS011;17930;48.592;8.868;2024-01-10T07:11:00;23.77;;;10.38;;
6828;SDS011;17930;48.592;8.868;2024-01-10T07:13:27;24.73;;;11.15;;
6828;SDS011;17930;48.592;8.868;2024-01-10T07:15:54;17.20;;;9.20;;
6828;SDS011;17930;48.592;8.868;2024-01-10T07:18:22;21.70;;;9.20;;
6828;SDS011;17930;48.592;8.868;2024-01-10T07:20:49;22.80;;;9.90;;
6828;SDS011;17930;48.592;8.868;2024-01-10T07:23:15;23.73;;;9.73;;
6828;SDS011;17930;48.592;8.868;2024-01-10T07:25:42;20.58;;;10.10;;
6828;SDS011;17930;48.592;8.868;2024-01-10T07:28:09;20.50;;;10.32;;
6828;SDS011;17930;48.592;8.868;2024-01-10T07:30:36;20.48;;;9.50;;
6828;SDS011;17930;48.592;8.868;2024-01-10T07:33:03;20.98;;;9.75;;
6828;SDS011;17930;48.592;8.868;2024-01-10T07:35:32;24.58;;;8.80;;
6828;SDS011;17930;48.592;8.868;2024-01-10T07:38:00;19.10;;;8.68;;
6828;SDS011;17930;48.592;8.868;2024-01-10T07:40:27;16.80;;;9.32;;
6828;SDS011;17930;48.592;8.868;2024-01-10T07:42:53;24.85;;;9.27;;
6828;SDS011;17930;48.592;8.868;2024-01-10T07:45:23;24.67;;;10.27;;
6828;SDS011;17930;48.592;8.868;2024-01-10T07:47:50;26.42;;;11.00;;
6828;SDS011;17930;48.592;8.868;2024-01-10T07:50:17;22.90;;;10.85;;
6828;SDS011;17930;48.592;8.868;2024-01-10T07:52:46;25.88;;;10.10;;
6828;SDS011;17930;48.592;8.868;2024-01-10T07:55:13;23.77;;;10.35;;
6828;SDS011;17930;48.592;8.868;2024-01-10T07:57:41;26.58;;;10.95;;
6828;SDS011;17930;48.592;8.868;2024-01-10T08:00:08;23.45;;;10.45;;
6828;SDS011;17930;48.592;8.868;2024-01-10T08:02:36;18.92;;;10.25;;
6828;SDS011;17930;48.592;8.868;2024-01-10T08:05:02;22.23;;;9.90;;
6828;SDS011;17930;48.592;8.868;2024-01-10T08:07:35;22.55;;;10.48;;
6828;SDS011;17930;48.592;8.868;2024-01-10T08:10:05;22.58;;;11.45;;
6828;SDS011;17930;48.592;8.868;2024-01-10T08:12:33;25.65;;;10.70;;
6828;SDS011;17930;48.592;8.868;2024-01-10T08:15:00;34.20;;;14.57;;
6828;SDS011;17930;48.592;8.868;2024-01-10T08:17:27;31.30;;;14.05;;
6828;SDS011;17930;48.592;8.868;2024-01-10T08:19:53;22.52;;;11.57;;
6828;SDS011;17930;48.592;8.868;2024-01-10T08:22:20;26.77;;;13.82;;
6828;SDS011;17930;48.592;8.868;2024-01-10T08:24:48;28.38;;;13.43;;
6828;SDS011;17930;48.592;8.868;2024-01-10T08:27:16;30.38;;;13.73;;
6828;SDS011;17930;48.592;8.868;2024-01-10T08:29:43;29.83;;;13.20;;
6828;SDS011;17930;48.592;8.868;2024-01-10T08:32:10;26.83;;;12.45;;
6828;SDS011;17930;48.592;8.868;2024-01-10T08:34:36;28.42;;;12.88;;
6828;SDS011;17930;48.592;8.868;2024-01-10T08:37:03;25.42;;;11.85;;
6828;SDS011;17930;48.592;8.868;2024-01-10T08:39:30;22.60;;;12.10;;
6828;SDS011;17930;48.592;8.868;2024-01-10T08:41:59;37.25;;;18.42;;
6828;SDS011;17930;48.592;8.868;2024-01-10T08:44:37;47.00;;;22.80;;
6828;SDS011;17930;48.592;8.868;2024-01-10T08:47:03;28.20;;;13.35;;
6828;SDS011;17930;48.592;8.868;2024-01-10T08:49:30;27.23;;;14.27;;
6828;SDS011;17930;48.592;8.868;2024-01-10T08:51:58;23.05;;;12.57;;
6828;SDS011;17930;48.592;8.868;2024-01-10T08:54:25;38.92;;;16.75;;
6828;SDS011;17930;48.592;8.868;2024-01-10T08:56:59;23.60;;;13.48;;
6828;SDS011;17930;48.592;8.868;2024-01-10T08:59:29;29.10;;;12.80;;
6828;SDS011;17930;48.592;8.868;2024-01-10T09:01:57;21.95;;;11.95;;
6828;SDS011;17930;48.592;8.868;2024-01-10T09:04:23;26.90;;;14.05;;
6828;SDS011;17930;48.592;8.868;2024-01-10T09:06:51;31.92;;;13.15;;
6828;SDS011;17930;48.592;8.868;2024-01-10T09:09:17;27.48;;;14.07;;
6828;SDS011;17930;48.592;8.868;2024-01-10T09:11:48;25.33;;;13.32;;
6828;SDS011;17930;48.592;8.868;2024-01-10T09:14:15;28.52;;;14.93;;
6828;SDS011;17930;48.592;8.868;2024-01-10T09:16:42;31.67;;;14.88;;
6828;SDS011;17930;48.592;8.868;2024-01-10T09:19:10;23.98;;;12.88;;
6828;SDS011;17930;48.592;8.868;2024-01-10T09:21:36;26.48;;;14.15;;
6828;SDS011;17930;48.592;8.868;2024-01-10T09:24:03;27.15;;;13.48;;
6828;SDS011;17930;48.592;8.868;2024-01-10T09:26:34;23.80;;;12.77;;
6828;SDS011;17930;48.592;8.868;2024-01-10T09:29:00;26.80;;;12.70;;
6828;SDS011;17930;48.592;8.868;2024-01-10T09:31:27;28.50;;;11.90;;
6828;SDS011;17930;48.592;8.868;2024-01-10T09:33:54;24.35;;;12.32;;
6828;SDS011;17930;48.592;8.868;2024-01-10T09:36:22;26.85;;;13.65;;
6828;SDS011;17930;48.592;8.868;2024-01-10T09:38:48;26.52;;;12.10;;
6828;SDS011;17930;48.592;8.868;2024-01-10T09:41:15;23.88;;;11.25;;
6828;SDS011;17930;48.592;8.868;2024-01-10T09:43:42;33.58;;;13.48;;
6828;SDS011;17930;48.592;8.868;2024-01-10T09:46:09;31.10;;;14.25;;
6828;SDS011;17930;48.592;8.868;2024-01-10T09:48:36;26.33;;;12.40;;
6828;SDS011;17930;48.592;8.868;2024-01-10T09:51:04;23.10;;;11.75;;
6828;SDS011;17930;48.592;8.868;2024-01-10T09:53:32;24.17;;;11.23;;
6828;SDS011;17930;48.592;8.868;2024-01-10T09:56:03;30.15;;;12.50;;
6828;SDS011;17930;48.592;8.868;2024-01-10T09:58:33;27.40;;;11.93;;
6828;SDS011;17930;48.592;8.868;2024-01-10T10:01:04;24.90;;;12.15;;
6828;SDS011;17930;48.592;8.868;2024-01-10T10:03:31;22.77;;;11.80;;
6828;SDS011;17930;48.592;8.868;2024-01-10T10:06:02;24.85;;;11.77;;
6828;SDS011;17930;48.592;8.868;2024-01-10T10:08:32;24.83;;;12.20;;
6828;SDS011;17930;48.592;8.868;2024-01-10T10:10:59;27.23;;;13.75;;
6828;SDS011;17930;48.592;8.868;2024-01-10T10:13:25;26.80;;;12.48;;
6828;SDS011;17930;48.592;8.868;2024-01-10T10:15:59;28.00;;;13.63;;
6828;SDS011;17930;48.592;8.868;2024-01-10T10:18:30;32.70;;;13.65;;
6828;SDS011;17930;48.592;8.868;2024-01-10T10:21:07;23.65;;;11.68;;
6828;SDS011;17930;48.592;8.868;2024-01-10T10:23:37;27.90;;;12.27;;
6828;SDS011;17930;48.592;8.868;2024-01-10T10:26:10;24.90;;;12.07;;
6828;SDS011;17930;48.592;8.868;2024-01-10T10:28:45;26.50;;;11.10;;
6828;SDS011;17930;48.592;8.868;2024-01-10T10:31:12;25.75;;;12.10;;
6828;SDS011;17930;48.592;8.868;2024-01-10T10:33:40;24.80;;;11.10;;
6828;SDS011;17930;48.592;8.868;2024-01-10T10:36:07;25.63;;;11.05;;
6828;SDS011;17930;48.592;8.868;2024-01-10T10:38:34;28.45;;;11.05;;
6828;SDS011;17930;48.592;8.868;2024-01-10T10:41:03;27.65;;;13.00;;
6828;SDS011;17930;48.592;8.868;2024-01-10T10:43:31;31.45;;;12.13;;
6828;SDS011;17930;48.592;8.868;2024-01-10T10:46:03;25.05;;;11.63;;
6828;SDS011;17930;48.592;8.868;2024-01-10T10:48:33;29.13;;;11.85;;
6828;SDS011;17930;48.592;8.868;2024-01-10T10:51:03;31.58;;;12.70;;
6828;SDS011;17930;48.592;8.868;2024-01-10T10:53:33;27.52;;;13.02;;
6828;SDS011;17930;48.592;8.868;2024-01-10T10:56:08;27.17;;;11.75;;
6828;SDS011;17930;48.592;8.868;2024-01-10T10:58:35;25.73;;;11.85;;
6828;SDS011;17930;48.592;8.868;2024-01-10T11:01:06;28.35;;;11.95;;
6828;SDS011;17930;48.592;8.868;2024-01-10T11:03:35;22.92;;;12.15;;
6828;SDS011;17930;48.592;8.868;2024-01-10T11:06:03;26.40;;;12.52;;
6828;SDS011;17930;48.592;8.868;2024-01-10T11:08:32;24.15;;;12.25;;
6828;SDS011;17930;48.592;8.868;2024-01-10T11:11:02;33.30;;;12.73;;
6828;SDS011;17930;48.592;8.868;2024-01-10T11:16:32;25.55;;;11.73;;
6828;SDS011;17930;48.592;8.868;2024-01-10T11:19:27;24.75;;;11.32;;
6828;SDS011;17930;48.592;8.868;2024-01-10T11:22:13;26.15;;;11.75;;
6828;SDS011;17930;48.592;8.868;2024-01-10T11:24:48;30.13;;;12.70;;
6828;SDS011;17930;48.592;8.868;2024-01-10T11:27:17;22.92;;;12.35;;
6828;SDS011;17930;48.592;8.868;2024-01-10T11:29:45;32.47;;;13.75;;
6828;SDS011;17930;48.592;8.868;2024-01-10T11:32:13;35.83;;;14.35;;
6828;SDS011;17930;48.592;8.868;2024-01-10T11:34:48;31.08;;;13.70;;
6828;SDS011;17930;48.592;8.868;2024-01-10T11:37:16;28.42;;;13.57;;
6828;SDS011;17930;48.592;8.868;2024-01-10T11:39:43;24.05;;;11.98;;
6828;SDS011;17930;48.592;8.868;2024-01-10T11:42:10;29.27;;;13.38;;
6828;SDS011;17930;48.592;8.868;2024-01-10T11:44:48;31.60;;;13.32;;
6828;SDS011;17930;48.592;8.868;2024-01-10T11:47:15;33.33;;;13.98;;
6828;SDS011;17930;48.592;8.868;2024-01-10T11:49:53;28.48;;;14.02;;
6828;SDS011;17930;48.592;8.868;2024-01-10T11:52:21;29.67;;;14.90;;
6828;SDS011;17930;48.592;8.868;2024-01-10T11:54:48;30.58;;;12.38;;
6828;SDS011;17930;48.592;8.868;2024-01-10T11:57:19;33.97;;;14.88;;
6828;SDS011;17930;48.592;8.868;2024-01-10T11:59:49;29.40;;;15.57;;
6828;SDS011;17930;48.592;8.868;2024-01-10T12:02:17;28.73;;;14.15;;
6828;SDS011;17930;48.592;8.868;2024-01-10T12:04:44;26.30;;;13.93;;
6828;SDS011;17930;48.592;8.868;2024-01-10T12:07:11;26.93;;;13.80;;
6828;SDS011;17930;48.592;8.868;2024-01-10T12:09:39;27.83;;;14.43;;
6828;SDS011;17930;48.592;8.868;2024-01-10T12:12:07;27.13;;;14.93;;
6828;SDS011;17930;48.592;8.868;2024-01-10T12:14:37;28.20;;;14.87;;
6828;SDS011;17930;48.592;8.868;2024-01-10T12:17:06;28.53;;;15.00;;
6828;SDS011;17930;48.592;8.868;2024-01-10T12:19:33;23.50;;;13.47;;
6828;SDS011;17930;48.592;8.868;2024-01-10T12:22:00;26.20;;;16.20;;
6828;SDS011;17930;48.592;8.868;2024-01-10T12:24:27;25.87;;;15.07;;
6828;SDS011;17930;48.592;8.868;2024-01-10T12:26:55;25.57;;;14.23;;
6828;SDS011;17930;48.592;8.868;2024-01-10T12:29:22;25.17;;;13.93;;
6828;SDS011;17930;48.592;8.868;2024-01-10T12:31:50;30.00;;;15.33;;
6828;SDS011;17930;48.592;8.868;2024-01-10T12:34:18;27.33;;;14.90;;
6828;SDS011;17930;48.592;8.868;2024-01-10T12:36:46;28.23;;;14.70;;
6828;SDS011;17930;48.592;8.868;2024-01-10T12:39:13;27.63;;;15.67;;
6828;SDS011;17930;48.592;8.868;2024-01-10T12:41:41;22.77;;;13.80;;
6828;SDS011;17930;48.592;8.868;2024-01-10T12:44:09;29.57;;;14.90;;
6828;SDS011;17930;48.592;8.868;2024-01-10T12:46:37;25.70;;;14.70;;
6828;SDS011;17930;48.592;8.868;2024-01-10T12:49:16;23.10;;;14.50;;
6828;SDS011;17930;48.592;8.868;2024-01-10T12:51:43;28.53;;;15.63;;
6828;SDS011;17930;48.592;8.868;2024-01-10T12:54:10;29.83;;;15.73;;
6828;SDS011;17930;48.592;8.868;2024-01-10T12:56:37;26.27;;;14.93;;
6828;SDS011;17930;48.592;8.868;2024-01-10T12:59:03;23.60;;;14.40;;
6828;SDS011;17930;48.592;8.868;2024-01-10T13:01:30;21.87;;;13.67;;
6828;SDS011;17930;48.592;8.868;2024-01-10T13:03:57;30.40;;;14.97;;
6828;SDS011;17930;48.592;8.868;2024-01-10T13:06:24;21.97;;;13.97;;
6828;SDS011;17930;48.592;8.868;2024-01-10T13:08:52;25.57;;;14.47;;
6828;SDS011;17930;48.592;8.868;2024-01-10T13:11:20;26.80;;;15.77;;
6828;SDS011;17930;48.592;8.868;2024-01-10T13:13:47;24.13;;;14.57;;
6828;SDS011;17930;48.592;8.868;2024-01-10T13:16:13;25.97;;;14.77;;
6828;SDS011;17930;48.592;8.868;2024-01-10T13:18:40;23.60;;;13.93;;
6828;SDS011;17930;48.592;8.868;2024-01-10T13:21:07;24.67;;;14.53;;
6828;SDS011;17930;48.592;8.868;2024-01-10T13:23:33;23.23;;;13.60;;
6828;SDS011;17930;48.592;8.868;2024-01-10T13:26:03;25.07;;;14.90;;
6828;SDS011;17930;48.592;8.868;2024-01-10T13:28:30;25.60;;;14.73;;
6828;SDS011;17930;48.592;8.868;2024-01-10T13:30:56;25.13;;;14.00;;
6828;SDS011;17930;48.592;8.868;2024-01-10T13:33:23;28.73;;;14.27;;
6828;SDS011;17930;48.592;8.868;2024-01-10T13:35:51;28.27;;;14.70;;
6828;SDS011;17930;48.592;8.868;2024-01-10T13:38:18;24.67;;;12.87;;
6828;SDS011;17930;48.592;8.868;2024-01-10T13:40:45;27.77;;;13.65;;
6828;SDS011;17930;48.592;8.868;2024-01-10T13:43:13;26.80;;;13.93;;
6828;SDS011;17930;48.592;8.868;2024-01-10T13:45:40;30.63;;;13.98;;
6828;SDS011;17930;48.592;8.868;2024-01-10T13:48:07;27.20;;;13.93;;
6828;SDS011;17930;48.592;8.868;2024-01-10T13:50:35;25.27;;;13.07;;
6828;SDS011;17930;48.592;8.868;2024-01-10T13:53:02;28.33;;;13.55;;
6828;SDS011;17930;48.592;8.868;2024-01-10T13:55:30;22.52;;;11.70;;
6828;SDS011;17930;48.592;8.868;2024-01-10T13:57:56;23.83;;;12.15;;
6828;SDS011;17930;48.592;8.868;2024-01-10T14:00:24;36.35;;;20.50;;
6828;SDS011;17930;48.592;8.868;2024-01-10T14:02:52;54.13;;;24.98;;
6828;SDS011;17930;48.592;8.868;2024-01-10T14:05:23;27.83;;;14.85;;
6828;SDS011;17930;48.592;8.868;2024-01-10T14:07:53;24.85;;;12.45;;
6828;SDS011;17930;48.592;8.868;2024-01-10T14:10:20;28.70;;;13.05;;
6828;SDS011;17930;48.592;8.868;2024-01-10T14:12:47;25.83;;;12.80;;
6828;SDS011;17930;48.592;8.868;2024-01-10T14:15:14;26.35;;;13.95;;
6828;SDS011;17930;48.592;8.868;2024-01-10T14:17:43;31.95;;;15.35;;
6828;SDS011;17930;48.592;8.868;2024-01-10T14:20:10;28.67;;;14.80;;
6828;SDS011;17930;48.592;8.868;2024-01-10T14:22:38;30.00;;;14.40;;
6828;SDS011;17930;48.592;8.868;2024-01-10T14:25:07;27.90;;;14.02;;
6828;SDS011;17930;48.592;8.868;2024-01-10T14:27:35;26.10;;;14.82;;
6828;SDS011;17930;48.592;8.868;2024-01-10T14:30:04;25.42;;;14.48;;
6828;SDS011;17930;48.592;8.868;2024-01-10T14:32:36;27.38;;;12.48;;
6828;SDS011;17930;48.592;8.868;2024-01-10T14:35:07;27.00;;;14.68;;
6828;SDS011;17930;48.592;8.868;2024-01-10T14:37:34;26.70;;;13.82;;
6828;SDS011;17930;48.592;8.868;2024-01-10T14:40:02;33.33;;;17.23;;
6828;SDS011;17930;48.592;8.868;2024-01-10T14:42:29;26.30;;;14.37;;
6828;SDS011;17930;48.592;8.868;2024-01-10T14:44:58;34.17;;;18.97;;
6828;SDS011;17930;48.592;8.868;2024-01-10T14:47:25;34.85;;;17.20;;